sensor_id;sensor_type;location;lat;lon;timestamp;temperature;humidity
2407;DHT22;37709;53.480;9.688;2023-05-07T00:02:07;8.70;99.90
2407;DHT22;37709;53.480;9.688;2023-05-07T00:04:34;8.60;99.90
2407;DHT22;37709;53.480;9.688;2023-05-07T00:07:05;8.60;99.90
2407;DHT22;37709;53.480;9.688;2023-05-07T00:09:32;8.60;99.90
2407;DHT22;37709;53.480;9.688;2023-05-07T00:12:00;8.60;99.90
2407;DHT22;37709;53.480;9.688;2023-05-07T00:14:27;8.60;99.90
2407;DHT22;37709;53.480;9.688;2023-05-07T00:16:55;8.60;99.90
2407;DHT22;37709;53.480;9.688;2023-05-07T00:19:23;8.60;99.90
2407;DHT22;37709;53.480;9.688;2023-05-07T00:21:50;8.60;99.90
2407;DHT22;37709;53.480;9.688;2023-05-07T00:24:20;8.60;99.90
2407;DHT22;37709;53.480;9.688;2023-05-07T00:26:47;8.60;99.90
2407;DHT22;37709;53.480;9.688;2023-05-07T00:29:15;8.60;99.90
2407;DHT22;37709;53.480;9.688;2023-05-07T00:31:42;8.50;99.90
2407;DHT22;37709;53.480;9.688;2023-05-07T00:34:09;8.50;99.90
2407;DHT22;37709;53.480;9.688;2023-05-07T00:36:36;8.50;99.90
2407;DHT22;37709;53.480;9.688;2023-05-07T00:39:04;8.50;99.90
2407;DHT22;37709;53.480;9.688;2023-05-07T00:41:31;8.50;99.90
2407;DHT22;37709;53.480;9.688;2023-05-07T00:43:58;8.50;99.90
2407;DHT22;37709;53.480;9.688;2023-05-07T00:46:26;8.50;99.90
2407;DHT22;37709;53.480;9.688;2023-05-07T00:48:53;8.50;99.90
2407;DHT22;37709;53.480;9.688;2023-05-07T00:51:21;8.50;99.90
2407;DHT22;37709;53.480;9.688;2023-05-07T00:53:49;8.50;99.90
2407;DHT22;37709;53.480;9.688;2023-05-07T00:56:17;8.50;99.90
2407;DHT22;37709;53.480;9.688;2023-05-07T00:58:44;8.50;99.90
2407;DHT22;37709;53.480;9.688;2023-05-07T01:01:11;8.50;99.90
2407;DHT22;37709;53.480;9.688;2023-05-07T01:03:38;8.50;99.90
2407;DHT22;37709;53.480;9.688;2023-05-07T01:06:07;8.50;99.90
2407;DHT22;37709;53.480;9.688;2023-05-07T01:08:36;8.50;99.90
2407;DHT22;37709;53.480;9.688;2023-05-07T01:11:07;8.50;99.90
2407;DHT22;37709;53.480;9.688;2023-05-07T01:13:35;8.50;99.90
2407;DHT22;37709;53.480;9.688;2023-05-07T01:16:04;8.50;99.90
2407;DHT22;37709;53.480;9.688;2023-05-07T01:18:32;8.40;99.90
2407;DHT22;37709;53.480;9.688;2023-05-07T01:21:01;8.40;99.90
2407;DHT22;37709;53.480;9.688;2023-05-07T01:23:30;8.40;99.90
2407;DHT22;37709;53.480;9.688;2023-05-07T01:25:58;8.40;99.90
2407;DHT22;37709;53.480;9.688;2023-05-07T01:28:28;8.40;99.90
2407;DHT22;37709;53.480;9.688;2023-05-07T01:31:03;8.40;99.90
2407;DHT22;37709;53.480;9.688;2023-05-07T01:33:33;8.40;99.90
2407;DHT22;37709;53.480;9.688;2023-05-07T01:36:03;8.40;99.90
2407;DHT22;37709;53.480;9.688;2023-05-07T01:38:33;8.40;99.90
2407;DHT22;37709;53.480;9.688;2023-05-07T01:41:01;8.40;99.90
2407;DHT22;37709;53.480;9.688;2023-05-07T01:43:29;8.40;99.90
2407;DHT22;37709;53.480;9.688;2023-05-07T01:45:57;8.40;99.90
2407;DHT22;37709;53.480;9.688;2023-05-07T01:48:26;8.40;99.90
2407;DHT22;37709;53.480;9.688;2023-05-07T01:50:54;8.40;99.90
2407;DHT22;37709;53.480;9.688;2023-05-07T01:53:22;8.40;99.90
2407;DHT22;37709;53.480;9.688;2023-05-07T01:55:49;8.40;99.90
2407;DHT22;37709;53.480;9.688;2023-05-07T01:58:17;8.40;99.90
2407;DHT22;37709;53.480;9.688;2023-05-07T02:00:44;8.40;99.90
2407;DHT22;37709;53.480;9.688;2023-05-07T02:03:12;8.40;99.90
2407;DHT22;37709;53.480;9.688;2023-05-07T02:05:46;8.40;99.90
2407;DHT22;37709;53.480;9.688;2023-05-07T02:08:33;8.40;99.90
2407;DHT22;37709;53.480;9.688;2023-05-07T02:11:00;8.40;99.90
2407;DHT22;37709;53.480;9.688;2023-05-07T02:13:31;8.40;99.90
2407;DHT22;37709;53.480;9.688;2023-05-07T02:15:58;8.40;99.90
2407;DHT22;37709;53.480;9.688;2023-05-07T02:18:27;8.40;99.90
2407;DHT22;37709;53.480;9.688;2023-05-07T02:20:55;8.40;99.90
2407;DHT22;37709;53.480;9.688;2023-05-07T02:23:22;8.40;99.90
2407;DHT22;37709;53.480;9.688;2023-05-07T02:25:50;8.40;99.90
2407;DHT22;37709;53.480;9.688;2023-05-07T02:28:17;8.40;99.90
2407;DHT22;37709;53.480;9.688;2023-05-07T02:30:50;8.40;99.90
2407;DHT22;37709;53.480;9.688;2023-05-07T02:33:18;8.40;99.90
2407;DHT22;37709;53.480;9.688;2023-05-07T02:35:46;8.40;99.90
2407;DHT22;37709;53.480;9.688;2023-05-07T02:38:15;8.40;99.90
2407;DHT22;37709;53.480;9.688;2023-05-07T02:40:43;8.40;99.90
2407;DHT22;37709;53.480;9.688;2023-05-07T02:43:11;8.40;99.90
2407;DHT22;37709;53.480;9.688;2023-05-07T02:45:41;8.40;99.90
2407;DHT22;37709;53.480;9.688;2023-05-07T02:48:10;8.40;99.90
2407;DHT22;37709;53.480;9.688;2023-05-07T02:50:38;8.40;99.90
2407;DHT22;37709;53.480;9.688;2023-05-07T02:53:05;8.50;99.90
2407;DHT22;37709;53.480;9.688;2023-05-07T02:55:33;8.50;99.90
2407;DHT22;37709;53.480;9.688;2023-05-07T02:58:00;8.40;99.90
2407;DHT22;37709;53.480;9.688;2023-05-07T03:00:31;8.40;99.90
2407;DHT22;37709;53.480;9.688;2023-05-07T03:03:26;8.50;99.90
2407;DHT22;37709;53.480;9.688;2023-05-07T03:05:53;8.50;99.90
2407;DHT22;37709;53.480;9.688;2023-05-07T03:08:20;8.50;99.90
2407;DHT22;37709;53.480;9.688;2023-05-07T03:10:48;8.50;99.90
2407;DHT22;37709;53.480;9.688;2023-05-07T03:13:15;8.50;99.90
2407;DHT22;37709;53.480;9.688;2023-05-07T03:15:43;8.50;99.90
2407;DHT22;37709;53.480;9.688;2023-05-07T03:18:11;8.50;99.90
2407;DHT22;37709;53.480;9.688;2023-05-07T03:20:38;8.50;99.90
2407;DHT22;37709;53.480;9.688;2023-05-07T03:23:06;8.50;99.90
2407;DHT22;37709;53.480;9.688;2023-05-07T03:25:33;8.40;99.90
2407;DHT22;37709;53.480;9.688;2023-05-07T03:28:01;8.50;99.90
2407;DHT22;37709;53.480;9.688;2023-05-07T03:30:37;8.40;99.90
2407;DHT22;37709;53.480;9.688;2023-05-07T03:33:05;8.40;99.90
2407;DHT22;37709;53.480;9.688;2023-05-07T03:35:33;8.40;99.90
2407;DHT22;37709;53.480;9.688;2023-05-07T03:38:01;8.40;99.90
2407;DHT22;37709;53.480;9.688;2023-05-07T03:40:32;8.40;99.90
2407;DHT22;37709;53.480;9.688;2023-05-07T03:43:00;8.40;99.90
2407;DHT22;37709;53.480;9.688;2023-05-07T03:45:54;8.40;99.90
2407;DHT22;37709;53.480;9.688;2023-05-07T03:48:25;8.40;99.90
2407;DHT22;37709;53.480;9.688;2023-05-07T03:50:57;8.40;99.90
2407;DHT22;37709;53.480;9.688;2023-05-07T03:53:28;8.40;99.90
2407;DHT22;37709;53.480;9.688;2023-05-07T03:55:56;8.50;99.90
2407;DHT22;37709;53.480;9.688;2023-05-07T03:58:23;8.50;99.90
2407;DHT22;37709;53.480;9.688;2023-05-07T04:00:52;8.50;99.90
2407;DHT22;37709;53.480;9.688;2023-05-07T04:03:25;8.50;99.90
2407;DHT22;37709;53.480;9.688;2023-05-07T04:05:53;8.50;99.90
2407;DHT22;37709;53.480;9.688;2023-05-07T04:08:21;8.50;99.90
2407;DHT22;37709;53.480;9.688;2023-05-07T04:10:56;8.50;99.90
2407;DHT22;37709;53.480;9.688;2023-05-07T04:13:26;8.60;99.90
2407;DHT22;37709;53.480;9.688;2023-05-07T04:15:55;8.60;99.90
2407;DHT22;37709;53.480;9.688;2023-05-07T04:18:23;8.60;99.90
2407;DHT22;37709;53.480;9.688;2023-05-07T04:20:51;8.60;99.90
2407;DHT22;37709;53.480;9.688;2023-05-07T04:23:18;8.60;99.90
2407;DHT22;37709;53.480;9.688;2023-05-07T04:25:46;8.70;99.90
2407;DHT22;37709;53.480;9.688;2023-05-07T04:28:22;8.70;99.90
2407;DHT22;37709;53.480;9.688;2023-05-07T04:30:50;8.70;99.90
2407;DHT22;37709;53.480;9.688;2023-05-07T04:33:20;8.80;99.90
2407;DHT22;37709;53.480;9.688;2023-05-07T04:35:49;8.90;99.90
2407;DHT22;37709;53.480;9.688;2023-05-07T04:38:16;8.90;99.90
2407;DHT22;37709;53.480;9.688;2023-05-07T04:40:44;9.00;99.90
2407;DHT22;37709;53.480;9.688;2023-05-07T04:43:15;9.00;99.90
2407;DHT22;37709;53.480;9.688;2023-05-07T04:45:51;9.00;99.90
2407;DHT22;37709;53.480;9.688;2023-05-07T04:48:20;9.00;99.90
2407;DHT22;37709;53.480;9.688;2023-05-07T04:50:52;9.10;99.90
2407;DHT22;37709;53.480;9.688;2023-05-07T04:53:20;9.10;99.90
2407;DHT22;37709;53.480;9.688;2023-05-07T04:55:55;9.20;99.90
2407;DHT22;37709;53.480;9.688;2023-05-07T04:58:25;9.20;99.90
2407;DHT22;37709;53.480;9.688;2023-05-07T05:00:52;9.20;99.90
2407;DHT22;37709;53.480;9.688;2023-05-07T05:03:20;9.20;99.90
2407;DHT22;37709;53.480;9.688;2023-05-07T05:05:49;9.20;99.90
2407;DHT22;37709;53.480;9.688;2023-05-07T05:08:16;9.20;99.90
2407;DHT22;37709;53.480;9.688;2023-05-07T05:10:44;9.20;99.90
2407;DHT22;37709;53.480;9.688;2023-05-07T05:13:11;9.20;99.90
2407;DHT22;37709;53.480;9.688;2023-05-07T05:15:41;9.20;99.90
2407;DHT22;37709;53.480;9.688;2023-05-07T05:18:09;9.20;99.90
2407;DHT22;37709;53.480;9.688;2023-05-07T05:20:36;9.20;99.90
2407;DHT22;37709;53.480;9.688;2023-05-07T05:23:04;9.20;99.90
2407;DHT22;37709;53.480;9.688;2023-05-07T05:25:31;9.20;99.90
2407;DHT22;37709;53.480;9.688;2023-05-07T05:28:00;9.20;99.90
2407;DHT22;37709;53.480;9.688;2023-05-07T05:30:29;9.20;99.90
2407;DHT22;37709;53.480;9.688;2023-05-07T05:32:56;9.20;99.90
2407;DHT22;37709;53.480;9.688;2023-05-07T05:35:23;9.20;99.90
2407;DHT22;37709;53.480;9.688;2023-05-07T05:37:50;9.30;99.90
2407;DHT22;37709;53.480;9.688;2023-05-07T05:40:18;9.40;99.90
2407;DHT22;37709;53.480;9.688;2023-05-07T05:42:46;9.30;99.90
2407;DHT22;37709;53.480;9.688;2023-05-07T05:45:16;9.40;99.90
2407;DHT22;37709;53.480;9.688;2023-05-07T05:47:45;9.50;99.90
2407;DHT22;37709;53.480;9.688;2023-05-07T05:50:12;9.50;99.90
2407;DHT22;37709;53.480;9.688;2023-05-07T05:52:40;9.50;99.90
2407;DHT22;37709;53.480;9.688;2023-05-07T05:55:08;9.50;99.90
2407;DHT22;37709;53.480;9.688;2023-05-07T05:57:36;9.50;99.90
2407;DHT22;37709;53.480;9.688;2023-05-07T06:00:05;9.60;99.90
2407;DHT22;37709;53.480;9.688;2023-05-07T06:02:44;9.50;99.90
2407;DHT22;37709;53.480;9.688;2023-05-07T06:05:17;9.60;99.90
2407;DHT22;37709;53.480;9.688;2023-05-07T06:07:45;9.60;99.90
2407;DHT22;37709;53.480;9.688;2023-05-07T06:10:13;9.70;99.90
2407;DHT22;37709;53.480;9.688;2023-05-07T06:12:40;9.80;99.90
2407;DHT22;37709;53.480;9.688;2023-05-07T06:15:08;9.80;99.90
2407;DHT22;37709;53.480;9.688;2023-05-07T06:17:35;9.90;99.90
2407;DHT22;37709;53.480;9.688;2023-05-07T06:20:03;10.00;99.90
2407;DHT22;37709;53.480;9.688;2023-05-07T06:22:31;10.00;99.90
2407;DHT22;37709;53.480;9.688;2023-05-07T06:24:59;10.10;99.90
2407;DHT22;37709;53.480;9.688;2023-05-07T06:27:26;10.10;99.90
2407;DHT22;37709;53.480;9.688;2023-05-07T06:29:55;10.10;99.90
2407;DHT22;37709;53.480;9.688;2023-05-07T06:32:22;10.20;99.90
2407;DHT22;37709;53.480;9.688;2023-05-07T06:34:51;10.20;99.90
2407;DHT22;37709;53.480;9.688;2023-05-07T06:37:19;10.20;99.90
2407;DHT22;37709;53.480;9.688;2023-05-07T06:39:52;10.30;99.90
2407;DHT22;37709;53.480;9.688;2023-05-07T06:42:19;10.40;99.90
2407;DHT22;37709;53.480;9.688;2023-05-07T06:44:48;10.40;99.90
2407;DHT22;37709;53.480;9.688;2023-05-07T06:47:17;10.50;99.90
2407;DHT22;37709;53.480;9.688;2023-05-07T06:49:49;10.50;99.90
2407;DHT22;37709;53.480;9.688;2023-05-07T06:52:19;10.60;99.90
2407;DHT22;37709;53.480;9.688;2023-05-07T06:54:48;10.70;99.90
2407;DHT22;37709;53.480;9.688;2023-05-07T06:57:17;10.70;99.90
2407;DHT22;37709;53.480;9.688;2023-05-07T06:59:45;10.70;99.90
2407;DHT22;37709;53.480;9.688;2023-05-07T07:02:12;10.80;99.90
2407;DHT22;37709;53.480;9.688;2023-05-07T07:04:41;10.90;99.90
2407;DHT22;37709;53.480;9.688;2023-05-07T07:07:10;11.00;99.90
2407;DHT22;37709;53.480;9.688;2023-05-07T07:09:39;11.10;99.90
2407;DHT22;37709;53.480;9.688;2023-05-07T07:12:08;11.10;99.90
2407;DHT22;37709;53.480;9.688;2023-05-07T07:14:38;11.30;99.90
2407;DHT22;37709;53.480;9.688;2023-05-07T07:17:06;11.50;99.90
2407;DHT22;37709;53.480;9.688;2023-05-07T07:19:34;11.60;99.90
2407;DHT22;37709;53.480;9.688;2023-05-07T07:22:03;11.70;99.90
2407;DHT22;37709;53.480;9.688;2023-05-07T07:24:31;11.90;99.90
2407;DHT22;37709;53.480;9.688;2023-05-07T07:27:02;12.00;99.90
2407;DHT22;37709;53.480;9.688;2023-05-07T07:29:30;12.20;99.90
2407;DHT22;37709;53.480;9.688;2023-05-07T07:31:58;12.40;99.90
2407;DHT22;37709;53.480;9.688;2023-05-07T07:34:25;12.60;99.90
2407;DHT22;37709;53.480;9.688;2023-05-07T07:36:53;12.80;99.90
2407;DHT22;37709;53.480;9.688;2023-05-07T07:39:20;13.10;99.90
2407;DHT22;37709;53.480;9.688;2023-05-07T07:41:51;13.10;99.90
2407;DHT22;37709;53.480;9.688;2023-05-07T07:44:20;13.00;99.90
2407;DHT22;37709;53.480;9.688;2023-05-07T07:46:52;13.00;99.90
2407;DHT22;37709;53.480;9.688;2023-05-07T07:49:20;13.10;99.90
2407;DHT22;37709;53.480;9.688;2023-05-07T07:51:48;13.10;99.90
2407;DHT22;37709;53.480;9.688;2023-05-07T07:54:16;13.20;99.90
2407;DHT22;37709;53.480;9.688;2023-05-07T07:56:43;12.90;99.90
2407;DHT22;37709;53.480;9.688;2023-05-07T07:59:12;12.70;99.90
2407;DHT22;37709;53.480;9.688;2023-05-07T08:01:43;12.90;99.90
2407;DHT22;37709;53.480;9.688;2023-05-07T08:04:10;13.00;99.90
2407;DHT22;37709;53.480;9.688;2023-05-07T08:06:40;13.10;99.90
2407;DHT22;37709;53.480;9.688;2023-05-07T08:09:09;13.20;99.90
2407;DHT22;37709;53.480;9.688;2023-05-07T08:11:37;13.20;99.90
2407;DHT22;37709;53.480;9.688;2023-05-07T08:14:05;13.20;99.90
2407;DHT22;37709;53.480;9.688;2023-05-07T08:16:33;13.30;99.90
2407;DHT22;37709;53.480;9.688;2023-05-07T08:19:01;13.40;99.90
2407;DHT22;37709;53.480;9.688;2023-05-07T08:21:29;13.60;99.90
2407;DHT22;37709;53.480;9.688;2023-05-07T08:24:01;13.60;99.90
2407;DHT22;37709;53.480;9.688;2023-05-07T08:26:29;13.80;99.90
2407;DHT22;37709;53.480;9.688;2023-05-07T08:28:56;13.70;99.90
2407;DHT22;37709;53.480;9.688;2023-05-07T08:31:25;13.80;99.90
2407;DHT22;37709;53.480;9.688;2023-05-07T08:33:52;13.70;99.90
2407;DHT22;37709;53.480;9.688;2023-05-07T08:36:20;13.90;99.90
2407;DHT22;37709;53.480;9.688;2023-05-07T08:38:47;14.10;99.90
2407;DHT22;37709;53.480;9.688;2023-05-07T08:41:15;14.10;99.90
2407;DHT22;37709;53.480;9.688;2023-05-07T08:43:50;14.00;99.90
2407;DHT22;37709;53.480;9.688;2023-05-07T08:46:20;14.20;99.90
2407;DHT22;37709;53.480;9.688;2023-05-07T08:48:50;14.40;99.90
2407;DHT22;37709;53.480;9.688;2023-05-07T08:51:19;14.60;99.90
2407;DHT22;37709;53.480;9.688;2023-05-07T08:53:48;14.60;99.90
2407;DHT22;37709;53.480;9.688;2023-05-07T08:56:21;14.70;99.90
2407;DHT22;37709;53.480;9.688;2023-05-07T08:58:51;14.60;99.90
2407;DHT22;37709;53.480;9.688;2023-05-07T09:01:19;14.40;99.90
2407;DHT22;37709;53.480;9.688;2023-05-07T09:03:51;14.40;99.90
2407;DHT22;37709;53.480;9.688;2023-05-07T09:06:20;14.60;99.90
2407;DHT22;37709;53.480;9.688;2023-05-07T09:08:55;14.70;99.90
2407;DHT22;37709;53.480;9.688;2023-05-07T09:11:28;14.90;99.90
2407;DHT22;37709;53.480;9.688;2023-05-07T09:13:58;15.10;99.90
2407;DHT22;37709;53.480;9.688;2023-05-07T09:16:34;15.50;99.90
2407;DHT22;37709;53.480;9.688;2023-05-07T09:19:03;15.40;99.90
2407;DHT22;37709;53.480;9.688;2023-05-07T09:21:30;15.40;99.90
2407;DHT22;37709;53.480;9.688;2023-05-07T09:23:59;15.40;99.90
2407;DHT22;37709;53.480;9.688;2023-05-07T09:26:34;15.60;99.90
2407;DHT22;37709;53.480;9.688;2023-05-07T09:29:03;15.60;99.90
2407;DHT22;37709;53.480;9.688;2023-05-07T09:31:31;15.70;99.90
2407;DHT22;37709;53.480;9.688;2023-05-07T09:33:58;16.10;99.90
2407;DHT22;37709;53.480;9.688;2023-05-07T09:36:29;16.30;99.90
2407;DHT22;37709;53.480;9.688;2023-05-07T09:39:01;16.90;99.00
2407;DHT22;37709;53.480;9.688;2023-05-07T09:41:32;17.00;98.40
2407;DHT22;37709;53.480;9.688;2023-05-07T09:44:09;17.10;98.10
2407;DHT22;37709;53.480;9.688;2023-05-07T09:46:43;17.50;97.90
2407;DHT22;37709;53.480;9.688;2023-05-07T09:49:23;19.00;95.40
2407;DHT22;37709;53.480;9.688;2023-05-07T09:51:58;19.50;94.10
2407;DHT22;37709;53.480;9.688;2023-05-07T09:54:29;19.30;93.10
2407;DHT22;37709;53.480;9.688;2023-05-07T09:56:59;18.90;93.40
2407;DHT22;37709;53.480;9.688;2023-05-07T09:59:31;19.20;93.30
2407;DHT22;37709;53.480;9.688;2023-05-07T10:02:03;19.20;93.20
2407;DHT22;37709;53.480;9.688;2023-05-07T10:04:35;19.10;92.90
2407;DHT22;37709;53.480;9.688;2023-05-07T10:07:08;18.90;92.40
2407;DHT22;37709;53.480;9.688;2023-05-07T10:09:37;18.60;93.00
2407;DHT22;37709;53.480;9.688;2023-05-07T10:12:11;18.60;93.00
2407;DHT22;37709;53.480;9.688;2023-05-07T10:14:39;18.90;92.10
2407;DHT22;37709;53.480;9.688;2023-05-07T10:17:07;19.00;91.80
2407;DHT22;37709;53.480;9.688;2023-05-07T10:19:36;18.90;92.00
2407;DHT22;37709;53.480;9.688;2023-05-07T10:22:06;18.80;92.00
2407;DHT22;37709;53.480;9.688;2023-05-07T10:24:41;18.30;92.10
2407;DHT22;37709;53.480;9.688;2023-05-07T10:27:15;17.80;92.70
2407;DHT22;37709;53.480;9.688;2023-05-07T10:29:57;17.70;93.00
2407;DHT22;37709;53.480;9.688;2023-05-07T10:32:39;18.00;92.80
2407;DHT22;37709;53.480;9.688;2023-05-07T10:35:20;18.00;92.30
2407;DHT22;37709;53.480;9.688;2023-05-07T10:37:49;18.40;92.00
2407;DHT22;37709;53.480;9.688;2023-05-07T10:40:19;18.70;91.70
2407;DHT22;37709;53.480;9.688;2023-05-07T10:42:55;19.50;91.60
2407;DHT22;37709;53.480;9.688;2023-05-07T10:45:24;20.50;90.10
2407;DHT22;37709;53.480;9.688;2023-05-07T10:48:15;21.00;89.40
2407;DHT22;37709;53.480;9.688;2023-05-07T10:51:19;20.80;87.80
2407;DHT22;37709;53.480;9.688;2023-05-07T10:54:24;19.90;88.50
2407;DHT22;37709;53.480;9.688;2023-05-07T11:00:00;19.80;89.90
2407;DHT22;37709;53.480;9.688;2023-05-07T11:05:34;18.70;90.60
2407;DHT22;37709;53.480;9.688;2023-05-07T11:08:14;18.80;90.50
2407;DHT22;37709;53.480;9.688;2023-05-07T11:10:56;18.90;90.80
2407;DHT22;37709;53.480;9.688;2023-05-07T11:13:49;18.90;90.70
2407;DHT22;37709;53.480;9.688;2023-05-07T11:16:28;19.40;89.20
2407;DHT22;37709;53.480;9.688;2023-05-07T11:19:05;19.30;89.20
2407;DHT22;37709;53.480;9.688;2023-05-07T11:21:40;20.30;88.80
2407;DHT22;37709;53.480;9.688;2023-05-07T11:24:24;21.30;86.30
2407;DHT22;37709;53.480;9.688;2023-05-07T11:27:01;21.00;85.60
2407;DHT22;37709;53.480;9.688;2023-05-07T11:29:30;21.60;85.50
2407;DHT22;37709;53.480;9.688;2023-05-07T11:32:06;22.30;85.40
2407;DHT22;37709;53.480;9.688;2023-05-07T11:37:23;23.40;81.30
2407;DHT22;37709;53.480;9.688;2023-05-07T11:40:07;24.70;76.10
2407;DHT22;37709;53.480;9.688;2023-05-07T11:42:39;23.80;76.00
2407;DHT22;37709;53.480;9.688;2023-05-07T11:45:08;24.10;75.00
2407;DHT22;37709;53.480;9.688;2023-05-07T11:47:36;23.20;74.50
2407;DHT22;37709;53.480;9.688;2023-05-07T11:50:07;23.90;74.00
2407;DHT22;37709;53.480;9.688;2023-05-07T11:52:37;24.10;73.60
2407;DHT22;37709;53.480;9.688;2023-05-07T11:55:07;23.80;73.50
2407;DHT22;37709;53.480;9.688;2023-05-07T11:57:35;23.20;73.70
2407;DHT22;37709;53.480;9.688;2023-05-07T12:00:02;22.70;74.40
2407;DHT22;37709;53.480;9.688;2023-05-07T12:02:40;23.40;73.50
2407;DHT22;37709;53.480;9.688;2023-05-07T12:05:09;23.20;72.80
2407;DHT22;37709;53.480;9.688;2023-05-07T12:07:37;22.50;73.30
2407;DHT22;37709;53.480;9.688;2023-05-07T12:20:06;23.00;73.50
2407;DHT22;37709;53.480;9.688;2023-05-07T12:22:35;25.80;67.20
2407;DHT22;37709;53.480;9.688;2023-05-07T12:37:24;24.50;67.20
2407;DHT22;37709;53.480;9.688;2023-05-07T12:40:24;27.60;60.70
2407;DHT22;37709;53.480;9.688;2023-05-07T13:02:45;27.00;60.20
2407;DHT22;37709;53.480;9.688;2023-05-07T13:05:13;32.00;50.00
2407;DHT22;37709;53.480;9.688;2023-05-07T13:10:20;30.60;50.20
2407;DHT22;37709;53.480;9.688;2023-05-07T13:35:00;27.10;55.10
2407;DHT22;37709;53.480;9.688;2023-05-07T13:37:27;22.50;60.60
2407;DHT22;37709;53.480;9.688;2023-05-07T13:39:55;21.60;62.10
2407;DHT22;37709;53.480;9.688;2023-05-07T13:42:22;21.50;63.10
2407;DHT22;37709;53.480;9.688;2023-05-07T13:44:49;21.30;64.20
2407;DHT22;37709;53.480;9.688;2023-05-07T13:49:45;21.60;63.60
2407;DHT22;37709;53.480;9.688;2023-05-07T13:52:12;25.50;59.30
2407;DHT22;37709;53.480;9.688;2023-05-07T13:54:39;27.60;55.50
2407;DHT22;37709;53.480;9.688;2023-05-07T13:57:07;28.30;53.70
2407;DHT22;37709;53.480;9.688;2023-05-07T13:59:34;29.00;53.00
2407;DHT22;37709;53.480;9.688;2023-05-07T14:02:02;29.10;52.00
2407;DHT22;37709;53.480;9.688;2023-05-07T14:04:30;27.60;53.00
2407;DHT22;37709;53.480;9.688;2023-05-07T14:06:59;26.10;54.80
2407;DHT22;37709;53.480;9.688;2023-05-07T14:09:27;25.00;56.90
2407;DHT22;37709;53.480;9.688;2023-05-07T14:11:55;24.50;58.60
2407;DHT22;37709;53.480;9.688;2023-05-07T14:14:23;23.80;59.40
2407;DHT22;37709;53.480;9.688;2023-05-07T14:19:18;23.40;59.90
2407;DHT22;37709;53.480;9.688;2023-05-07T14:21:45;21.50;62.30
2407;DHT22;37709;53.480;9.688;2023-05-07T14:24:13;21.30;63.90
2407;DHT22;37709;53.480;9.688;2023-05-07T14:26:47;21.10;63.80
2407;DHT22;37709;53.480;9.688;2023-05-07T14:29:14;20.80;63.90
2407;DHT22;37709;53.480;9.688;2023-05-07T14:31:50;20.50;64.10
2407;DHT22;37709;53.480;9.688;2023-05-07T14:34:17;20.60;64.40
2407;DHT22;37709;53.480;9.688;2023-05-07T14:36:44;20.70;65.00
2407;DHT22;37709;53.480;9.688;2023-05-07T14:39:11;21.00;64.20
2407;DHT22;37709;53.480;9.688;2023-05-07T14:41:40;21.30;65.10
2407;DHT22;37709;53.480;9.688;2023-05-07T14:44:08;21.90;63.80
2407;DHT22;37709;53.480;9.688;2023-05-07T14:46:36;22.00;62.60
2407;DHT22;37709;53.480;9.688;2023-05-07T14:49:03;21.90;62.70
2407;DHT22;37709;53.480;9.688;2023-05-07T14:51:31;21.90;62.80
2407;DHT22;37709;53.480;9.688;2023-05-07T14:54:00;21.80;62.80
2407;DHT22;37709;53.480;9.688;2023-05-07T14:56:28;21.90;63.90
2407;DHT22;37709;53.480;9.688;2023-05-07T14:58:56;22.30;63.50
2407;DHT22;37709;53.480;9.688;2023-05-07T15:01:24;22.20;63.10
2407;DHT22;37709;53.480;9.688;2023-05-07T15:03:52;22.20;62.30
2407;DHT22;37709;53.480;9.688;2023-05-07T15:06:21;22.40;62.70
2407;DHT22;37709;53.480;9.688;2023-05-07T15:08:48;22.30;61.90
2407;DHT22;37709;53.480;9.688;2023-05-07T15:11:15;21.90;63.40
2407;DHT22;37709;53.480;9.688;2023-05-07T15:13:43;21.60;63.70
2407;DHT22;37709;53.480;9.688;2023-05-07T15:16:11;21.40;64.00
2407;DHT22;37709;53.480;9.688;2023-05-07T15:18:38;21.20;64.50
2407;DHT22;37709;53.480;9.688;2023-05-07T15:21:06;21.20;64.60
2407;DHT22;37709;53.480;9.688;2023-05-07T15:23:34;21.10;64.50
2407;DHT22;37709;53.480;9.688;2023-05-07T15:26:01;21.10;65.00
2407;DHT22;37709;53.480;9.688;2023-05-07T15:28:29;20.80;64.80
2407;DHT22;37709;53.480;9.688;2023-05-07T15:30:58;20.70;64.60
2407;DHT22;37709;53.480;9.688;2023-05-07T15:33:26;20.70;65.20
2407;DHT22;37709;53.480;9.688;2023-05-07T15:35:53;20.80;65.20
2407;DHT22;37709;53.480;9.688;2023-05-07T15:38:20;20.70;64.50
2407;DHT22;37709;53.480;9.688;2023-05-07T15:40:48;20.40;65.30
2407;DHT22;37709;53.480;9.688;2023-05-07T15:43:15;20.40;65.90
2407;DHT22;37709;53.480;9.688;2023-05-07T15:45:43;20.50;64.80
2407;DHT22;37709;53.480;9.688;2023-05-07T15:48:10;20.50;65.00
2407;DHT22;37709;53.480;9.688;2023-05-07T15:50:38;20.40;64.90
2407;DHT22;37709;53.480;9.688;2023-05-07T15:53:05;20.50;64.80
2407;DHT22;37709;53.480;9.688;2023-05-07T15:55:33;20.50;64.80
2407;DHT22;37709;53.480;9.688;2023-05-07T15:58:00;20.30;65.30
2407;DHT22;37709;53.480;9.688;2023-05-07T16:00:29;20.30;65.90
2407;DHT22;37709;53.480;9.688;2023-05-07T16:02:56;20.40;65.80
2407;DHT22;37709;53.480;9.688;2023-05-07T16:05:24;20.60;65.90
2407;DHT22;37709;53.480;9.688;2023-05-07T16:07:51;20.60;65.40
2407;DHT22;37709;53.480;9.688;2023-05-07T16:10:19;20.70;64.40
2407;DHT22;37709;53.480;9.688;2023-05-07T16:12:46;20.70;64.60
2407;DHT22;37709;53.480;9.688;2023-05-07T16:15:14;20.60;65.30
2407;DHT22;37709;53.480;9.688;2023-05-07T16:17:45;20.50;65.70
2407;DHT22;37709;53.480;9.688;2023-05-07T16:20:13;20.60;65.60
2407;DHT22;37709;53.480;9.688;2023-05-07T16:22:42;20.50;65.40
2407;DHT22;37709;53.480;9.688;2023-05-07T16:25:10;20.30;65.80
2407;DHT22;37709;53.480;9.688;2023-05-07T16:27:37;20.30;66.50
2407;DHT22;37709;53.480;9.688;2023-05-07T16:30:05;20.50;66.60
2407;DHT22;37709;53.480;9.688;2023-05-07T16:32:33;20.70;65.30
2407;DHT22;37709;53.480;9.688;2023-05-07T16:35:02;20.40;65.20
2407;DHT22;37709;53.480;9.688;2023-05-07T16:37:31;20.10;66.10
2407;DHT22;37709;53.480;9.688;2023-05-07T16:40:02;20.10;66.00
2407;DHT22;37709;53.480;9.688;2023-05-07T16:42:34;19.90;66.60
2407;DHT22;37709;53.480;9.688;2023-05-07T16:45:02;19.80;67.20
2407;DHT22;37709;53.480;9.688;2023-05-07T16:47:31;19.60;67.50
2407;DHT22;37709;53.480;9.688;2023-05-07T16:49:59;19.30;68.90
2407;DHT22;37709;53.480;9.688;2023-05-07T16:52:28;19.10;68.80
2407;DHT22;37709;53.480;9.688;2023-05-07T16:54:56;18.80;69.30
2407;DHT22;37709;53.480;9.688;2023-05-07T16:57:28;18.70;69.70
2407;DHT22;37709;53.480;9.688;2023-05-07T16:59:56;18.50;69.60
2407;DHT22;37709;53.480;9.688;2023-05-07T17:02:25;18.30;70.40
2407;DHT22;37709;53.480;9.688;2023-05-07T17:04:53;18.10;71.00
2407;DHT22;37709;53.480;9.688;2023-05-07T17:07:20;18.00;71.20
2407;DHT22;37709;53.480;9.688;2023-05-07T17:09:48;17.90;71.40
2407;DHT22;37709;53.480;9.688;2023-05-07T17:12:15;18.00;71.80
2407;DHT22;37709;53.480;9.688;2023-05-07T17:14:42;17.90;71.70
2407;DHT22;37709;53.480;9.688;2023-05-07T17:17:10;17.80;71.80
2407;DHT22;37709;53.480;9.688;2023-05-07T17:19:38;17.60;71.70
2407;DHT22;37709;53.480;9.688;2023-05-07T17:22:06;17.50;72.80
2407;DHT22;37709;53.480;9.688;2023-05-07T17:24:34;17.30;73.00
2407;DHT22;37709;53.480;9.688;2023-05-07T17:27:01;17.20;73.60
2407;DHT22;37709;53.480;9.688;2023-05-07T17:29:29;17.00;74.30